Time;durP1;ratioP1;P1;durP2;ratioP2;P2;SDS_P1;SDS_P2;PMS_P1;PMS_P2;Temp;Humidity;BMP_temperature;BMP_pressure;BME280_temperature;BME280_humidity;BME280_pressure;Samples;Min_cycle;Max_cycle;Signal;HPM_P1;HPM_P2
2022/07/06 00:01:17;;;;;;;3.47;1.77;;;;;;;15.63;84.60;99489.09;5091129;28;20052;-79
2022/07/06 00:03:44;;;;;;;3.75;1.83;;;;;;;15.62;84.41;99483.81;5087606;28;20044;-78
2022/07/06 00:06:10;;;;;;;13.65;3.40;;;;;;;15.54;85.20;99488.44;5089953;28;20048;-79
2022/07/06 00:08:37;;;;;;;4.22;1.90;;;;;;;15.61;85.81;99504.91;5084517;28;20047;-79
2022/07/06 00:11:04;;;;;;;3.33;2.00;;;;;;;15.65;86.30;99511.63;5080361;28;20479;-79
2022/07/06 00:13:30;;;;;;;2.30;1.65;;;;;;;15.63;85.88;99507.44;5089028;28;20052;-79
2022/07/06 00:15:58;;;;;;;7.88;1.90;;;;;;;15.62;86.19;99508.47;5086630;28;20058;-79
2022/07/06 00:18:26;;;;;;;7.45;2.15;;;;;;;15.67;86.71;99517.78;5089664;28;20044;-79
2022/07/06 00:20:53;;;;;;;2.50;1.75;;;;;;;15.56;87.11;99500.03;5088126;28;20051;-79
2022/07/06 00:23:19;;;;;;;2.67;1.50;;;;;;;15.66;87.03;99515.25;5091964;28;20048;-79
2022/07/06 00:25:47;;;;;;;3.88;1.63;;;;;;;15.51;88.06;99501.72;5091108;28;20044;-79
2022/07/06 00:28:14;;;;;;;4.03;2.08;;;;;;;15.31;90.44;99501.69;5092792;28;20435;-79
2022/07/06 00:30:41;;;;;;;4.53;2.00;;;;;;;15.42;90.47;99503.00;5092536;28;20048;-79
2022/07/06 00:33:09;;;;;;;3.05;1.80;;;;;;;15.49;89.38;99512.03;5084805;28;20050;-79
2022/07/06 00:35:35;;;;;;;7.28;1.80;;;;;;;15.40;90.84;99517.72;5087978;28;20044;-79
2022/07/06 00:38:02;;;;;;;4.25;2.20;;;;;;;15.35;90.55;99502.97;5090602;28;20044;-79
2022/07/06 00:40:29;;;;;;;3.33;2.08;;;;;;;15.34;90.16;99509.47;5092629;28;20467;-79
2022/07/06 00:42:56;;;;;;;2.90;2.15;;;;;;;15.34;90.43;99513.09;5083778;28;20470;-79
2022/07/06 00:45:24;;;;;;;3.45;1.70;;;;;;;15.33;90.33;99514.13;5083960;28;20498;-79
2022/07/06 00:47:50;;;;;;;2.72;1.90;;;;;;;15.31;89.44;99504.41;5083927;28;20052;-79
2022/07/06 00:50:20;;;;;;;2.60;1.95;;;;;;;15.17;89.70;99507.13;5086446;28;20096;-79
2022/07/06 00:52:48;;;;;;;;;;;;;;;15.29;88.81;99517.47;5089291;28;20048;-80
2022/07/06 00:55:17;;;;;;;7.25;2.50;;;;;;;15.16;90.58;99505.44;5088649;28;20370;-79
2022/07/06 00:57:43;;;;;;;2.22;1.50;;;;;;;15.07;90.45;99517.66;5091017;28;20048;-79
2022/07/06 01:00:13;;;;;;;7.97;2.75;;;;;;;15.05;91.17;99511.50;5085650;28;20036;-79
2022/07/06 01:02:40;;;;;;;8.30;1.83;;;;;;;14.91;92.63;99518.00;5085020;28;20044;-80
2022/07/06 01:05:09;;;;;;;3.15;2.30;;;;;;;14.74;93.00;99518.34;5090857;28;20044;-79
2022/07/06 01:07:39;;;;;;;4.93;1.92;;;;;;;14.94;91.88;99520.34;5095492;28;20047;-79
2022/07/06 01:10:07;;;;;;;5.47;2.10;;;;;;;14.89;92.85;99522.81;5092236;28;20052;-79
2022/07/06 01:12:36;;;;;;;6.78;2.20;;;;;;;14.77;92.00;99511.59;5089202;28;20067;-79
2022/07/06 01:15:04;;;;;;;5.28;2.15;;;;;;;14.85;92.21;99519.66;5099048;28;20048;-78
2022/07/06 01:17:31;;;;;;;3.40;2.00;;;;;;;14.89;93.18;99528.28;5089728;28;20059;-79
2022/07/06 01:19:58;;;;;;;3.03;2.03;;;;;;;14.85;92.63;99515.03;5091616;28;20056;-79
2022/07/06 01:22:26;;;;;;;3.63;2.15;;;;;;;14.85;93.32;99515.03;5082325;28;20066;-79
2022/07/06 01:24:52;;;;;;;2.97;2.00;;;;;;;14.80;94.09;99512.06;5091544;28;20044;-79
2022/07/06 01:27:19;;;;;;;2.38;1.85;;;;;;;14.79;92.73;99518.56;5078188;28;20049;-79
2022/07/06 01:29:45;;;;;;;6.40;1.80;;;;;;;14.60;93.30;99495.53;5091576;28;20044;-79
2022/07/06 01:32:12;;;;;;;3.25;2.00;;;;;;;14.66;94.38;99504.84;5088091;28;20056;-79
2022/07/06 01:34:38;;;;;;;2.55;1.73;;;;;;;14.62;95.92;99504.41;5090863;28;20487;-79
2022/07/06 01:37:05;;;;;;;4.40;1.95;;;;;;;14.58;95.13;99499.50;5077624;28;20044;-79
2022/07/06 01:39:33;;;;;;;3.75;2.10;;;;;;;14.74;93.91;99522.97;5090227;28;20056;-79
2022/07/06 01:41:59;;;;;;;3.30;2.05;;;;;;;14.61;94.28;99501.88;5078021;28;20155;-79
2022/07/06 01:44:26;;;;;;;3.45;2.47;;;;;;;14.64;95.20;99515.97;5081421;28;20063;-79
2022/07/06 01:46:52;;;;;;;6.28;2.30;;;;;;;14.62;95.25;99519.97;5085979;28;20053;-79
2022/07/06 01:49:19;;;;;;;10.07;2.50;;;;;;;14.56;96.02;99516.13;5090245;28;20055;-79
2022/07/06 01:51:46;;;;;;;7.35;2.08;;;;;;;14.37;98.25;99506.75;5084260;28;20048;-79
2022/07/06 01:54:12;;;;;;;5.88;2.42;;;;;;;14.28;99.50;99507.97;5086339;28;20099;-79
2022/07/06 01:56:40;;;;;;;3.42;1.85;;;;;;;14.14;99.75;99507.88;5077028;28;20040;-80
2022/07/06 01:59:07;;;;;;;5.18;2.10;;;;;;;14.03;100.00;99511.16;5085277;28;20058;-79
2022/07/06 02:01:33;;;;;;;2.88;1.95;;;;;;;13.97;100.00;99492.81;5088690;28;20040;-80
2022/07/06 02:04:00;;;;;;;3.63;1.83;;;;;;;13.99;100.00;99485.28;5086817;28;20055;-80
2022/07/06 02:06:26;;;;;;;2.75;1.95;;;;;;;13.97;100.00;99480.00;5082695;28;20055;-80
2022/07/06 02:08:54;;;;;;;2.20;2.00;;;;;;;14.05;100.00;99505.50;5082455;28;20052;-80
2022/07/06 02:11:20;;;;;;;2.60;2.20;;;;;;;14.09;99.79;99520.44;5090456;28;20157;-80
2022/07/06 02:13:48;;;;;;;3.55;1.90;;;;;;;14.10;99.68;99513.94;5088555;28;20048;-80
2022/07/06 02:16:15;;;;;;;4.90;2.22;;;;;;;14.07;99.61;99504.25;5090697;28;20048;-80
2022/07/06 02:18:41;;;;;;;2.50;2.08;;;;;;;14.18;99.49;99526.59;5089642;28;20435;-80
2022/07/06 02:21:08;;;;;;;3.45;2.40;;;;;;;14.23;100.00;99526.88;5090696;28;20048;-80
2022/07/06 02:23:34;;;;;;;6.03;2.50;;;;;;;14.23;98.62;99524.13;5080984;28;20388;-80
2022/07/06 02:26:01;;;;;;;2.17;1.95;;;;;;;14.22;99.05;99530.66;5087665;28;20047;-80
2022/07/06 02:28:28;;;;;;;8.98;2.45;;;;;;;14.02;99.16;99504.00;5088251;28;20052;-80
2022/07/06 02:30:56;;;;;;;5.53;2.50;;;;;;;14.19;98.90;99523.69;5090169;28;20052;-80
2022/07/06 02:33:22;;;;;;;6.57;2.70;;;;;;;14.09;99.45;99513.09;5080944;28;20488;-80
2022/07/06 02:35:49;;;;;;;3.95;2.17;;;;;;;14.13;99.02;99528.03;5089173;28;20217;-80
2022/07/06 02:38:15;;;;;;;9.60;2.70;;;;;;;14.09;99.07;99525.91;5090507;28;20059;-80
2022/07/06 02:40:42;;;;;;;5.22;2.10;;;;;;;14.03;100.00;99530.31;5084910;28;20056;-80
2022/07/06 02:43:09;;;;;;;4.53;1.92;;;;;;;13.98;100.00;99528.19;5086033;28;20047;-80
2022/07/06 02:45:36;;;;;;;2.88;2.25;;;;;;;13.96;99.60;99527.50;5082205;28;20048;-80
2022/07/06 02:48:04;;;;;;;3.65;2.60;;;;;;;13.86;100.00;99528.91;5081910;28;20051;-80
2022/07/06 02:50:31;;;;;;;5.40;2.40;;;;;;;13.56;100.00;99531.78;5083167;28;20483;-80
2022/07/06 02:52:58;;;;;;;3.90;2.10;;;;;;;13.60;100.00;99531.19;5093261;28;20423;-80
2022/07/06 02:55:25;;;;;;;3.05;2.30;;;;;;;13.58;100.00;99530.53;5093150;28;20047;-80
2022/07/06 02:57:51;;;;;;;3.90;2.22;;;;;;;13.57;100.00;99549.88;5091170;28;20059;-81
2022/07/06 03:00:18;;;;;;;3.30;2.17;;;;;;;13.52;100.00;99539.53;5091760;28;20048;-80
2022/07/06 03:02:44;;;;;;;6.22;2.30;;;;;;;13.53;100.00;99540.34;5080662;28;20055;-80
2022/07/06 03:05:12;;;;;;;2.50;2.10;;;;;;;13.52;100.00;99547.72;5092433;28;20047;-80
2022/07/06 03:07:39;;;;;;;6.18;2.15;;;;;;;13.40;100.00;99543.81;5091926;28;20391;-81
2022/07/06 03:10:06;;;;;;;5.90;2.17;;;;;;;13.34;100.00;99550.91;5094086;28;20044;-81
2022/07/06 03:12:33;;;;;;;3.38;2.40;;;;;;;13.28;100.00;99557.09;5091482;28;20040;-81
2022/07/06 03:14:59;;;;;;;5.55;2.65;;;;;;;13.18;100.00;99553.81;5097079;28;20245;-80
2022/07/06 03:17:26;;;;;;;6.63;2.47;;;;;;;13.17;100.00;99552.13;5088939;28;20059;-80
2022/07/06 03:19:53;;;;;;;35.60;5.60;;;;;;;13.18;100.00;99551.94;5096442;28;20127;-81
2022/07/06 03:22:21;;;;;;;4.63;2.50;;;;;;;13.14;100.00;99552.50;5088595;28;20093;-81
2022/07/06 03:24:48;;;;;;;3.95;3.00;;;;;;;13.10;100.00;99552.06;5094019;28;20111;-81
2022/07/06 03:27:15;;;;;;;5.18;2.67;;;;;;;13.06;100.00;99564.41;5090395;28;20044;-81
2022/07/06 03:29:41;;;;;;;4.20;2.80;;;;;;;13.11;100.00;99583.75;5087818;28;20048;-81
2022/07/06 03:32:08;;;;;;;4.20;2.75;;;;;;;13.22;100.00;99563.34;5084591;28;20056;-81
2022/07/06 03:34:35;;;;;;;2.50;2.28;;;;;;;13.11;100.00;99559.19;5082264;28;20040;-80
2022/07/06 03:37:01;;;;;;;7.63;2.65;;;;;;;12.95;100.00;99578.50;5090605;28;20044;-81
2022/07/06 03:39:29;;;;;;;6.20;2.78;;;;;;;12.90;100.00;99573.63;5091166;28;20044;-81
2022/07/06 03:41:56;;;;;;;3.88;2.72;;;;;;;12.85;100.00;99579.66;5093477;28;20410;-80
2022/07/06 03:44:22;;;;;;;4.57;2.75;;;;;;;12.79;100.00;99569.50;5094691;28;20039;-81
2022/07/06 03:46:50;;;;;;;5.28;2.75;;;;;;;12.81;100.00;99566.59;5098434;28;20103;-80
2022/07/06 03:49:17;;;;;;;4.20;2.55;;;;;;;12.85;100.00;99584.28;5093776;28;20514;-80
2022/07/06 03:51:44;;;;;;;3.85;3.08;;;;;;;12.79;100.00;99568.66;5090321;28;20052;-80
2022/07/06 03:54:16;;;;;;;4.07;2.60;;;;;;;12.84;100.00;99572.53;5081938;28;20044;-80
2022/07/06 03:56:44;;;;;;;4.18;2.67;;;;;;;12.90;100.00;99587.28;5091730;28;20070;-81
2022/07/06 03:59:10;;;;;;;5.53;2.65;;;;;;;12.86;100.00;99575.06;5091243;28;20432;-80
2022/07/06 04:01:37;;;;;;;6.65;2.63;;;;;;;12.91;100.00;99570.72;5086558;28;20060;-80
2022/07/06 04:04:04;;;;;;;2.78;2.58;;;;;;;12.84;100.00;99561.63;5093572;28;20143;-80
2022/07/06 04:06:34;;;;;;;4.40;2.72;;;;;;;12.83;100.00;99573.56;5093251;28;20097;-80
2022/07/06 04:09:01;;;;;;;7.47;2.38;;;;;;;12.98;100.00;99584.44;5091778;28;20052;-80
2022/07/06 04:11:27;;;;;;;3.17;2.65;;;;;;;13.04;100.00;99593.78;5089420;28;20048;-81
2022/07/06 04:13:55;;;;;;;8.68;2.45;;;;;;;13.05;100.00;99590.84;5091958;28;20055;-80
2022/07/06 04:16:22;;;;;;;9.65;2.97;;;;;;;13.03;100.00;99582.00;5081053;28;20052;-81
2022/07/06 04:18:49;;;;;;;6.80;2.65;;;;;;;13.17;100.00;99579.44;5088122;28;20063;-80
2022/07/06 04:21:15;;;;;;;3.75;2.35;;;;;;;13.27;100.00;99597.19;5090606;28;20123;-80
2022/07/06 04:23:42;;;;;;;3.33;2.92;;;;;;;13.31;100.00;99597.66;5088988;28;20059;-80
2022/07/06 04:26:09;;;;;;;7.00;3.00;;;;;;;13.32;100.00;99598.50;5101000;28;20102;-81
2022/07/06 04:28:36;;;;;;;4.50;2.90;;;;;;;13.34;100.00;99601.91;5097915;28;20113;-80
2022/07/06 04:31:04;;;;;;;6.00;3.03;;;;;;;13.34;100.00;99602.78;5092328;28;20052;-80
2022/07/06 04:33:31;;;;;;;5.13;2.70;;;;;;;13.40;100.00;99599.28;5078672;28;20048;-81
2022/07/06 04:35:58;;;;;;;5.22;3.00;;;;;;;13.31;100.00;99580.41;5083223;28;20048;-81
2022/07/06 04:38:24;;;;;;;4.75;2.88;;;;;;;13.44;100.00;99600.59;5093226;28;20050;-80
2022/07/06 04:40:51;;;;;;;5.25;2.92;;;;;;;13.43;100.00;99604.34;5088365;28;20044;-81
2022/07/06 04:43:17;;;;;;;5.75;2.92;;;;;;;13.37;100.00;99598.78;5092857;28;20048;-80
2022/07/06 04:45:44;;;;;;;6.45;3.13;;;;;;;13.64;100.00;99613.63;5093852;28;20106;-81
2022/07/06 04:48:12;;;;;;;6.22;3.13;;;;;;;13.80;100.00;99604.31;5090850;28;20048;-80
2022/07/06 04:50:38;;;;;;;6.97;3.20;;;;;;;13.71;100.00;99602.75;5085865;28;20384;-81
2022/07/06 04:53:05;;;;;;;9.90;3.55;;;;;;;13.74;100.00;99607.81;5083236;28;20380;-80
2022/07/06 04:55:31;;;;;;;7.18;3.33;;;;;;;13.58;100.00;99604.31;5091273;28;20043;-80
2022/07/06 04:57:58;;;;;;;3.90;2.60;;;;;;;13.70;100.00;99610.09;5090195;28;20044;-81
2022/07/06 05:00:25;;;;;;;4.88;2.97;;;;;;;13.87;100.00;99616.16;5077435;28;20040;-81
2022/07/06 05:02:51;;;;;;;7.22;2.95;;;;;;;14.05;100.00;99612.94;5089329;28;20060;-81
2022/07/06 05:05:19;;;;;;;10.40;2.95;;;;;;;14.60;95.72;99609.59;5089132;28;20055;-81
2022/07/06 05:07:46;;;;;;;9.40;3.50;;;;;;;15.31;89.60;99613.97;5088880;28;20055;-80
2022/07/06 05:10:13;;;;;;;5.75;2.88;;;;;;;15.89;86.25;99611.63;5092488;28;20191;-81
2022/07/06 05:12:40;;;;;;;6.38;2.63;;;;;;;15.60;85.65;99592.78;5086716;28;20063;-80
2022/07/06 05:15:07;;;;;;;4.82;2.45;;;;;;;15.53;88.74;99626.50;5091518;28;20117;-80
2022/07/06 05:17:34;;;;;;;3.13;2.80;;;;;;;15.67;88.58;99621.91;5081125;28;20048;-81
2022/07/06 05:20:00;;;;;;;2.85;2.53;;;;;;;16.27;85.37;99615.66;5090747;28;20074;-81
2022/07/06 05:22:28;;;;;;;4.88;2.75;;;;;;;16.80;80.33;99625.75;5082500;28;20056;-81
2022/07/06 05:24:55;;;;;;;2.70;2.50;;;;;;;16.46;81.22;99605.75;5091611;28;20052;-81
2022/07/06 05:27:22;;;;;;;6.82;2.53;;;;;;;16.44;81.52;99625.19;5083461;28;20040;-81
2022/07/06 05:29:48;;;;;;;4.07;2.33;;;;;;;16.17;84.11;99626.22;5086823;28;20167;-81
2022/07/06 05:32:15;;;;;;;6.47;2.60;;;;;;;16.01;86.47;99609.13;5085372;28;20048;-80
2022/07/06 05:34:41;;;;;;;3.60;2.83;;;;;;;16.32;86.34;99624.13;5091957;28;20131;-81
2022/07/06 05:37:08;;;;;;;6.65;2.92;;;;;;;16.32;84.90;99626.88;5090456;28;20043;-81
2022/07/06 05:39:36;;;;;;;10.82;2.72;;;;;;;16.35;83.48;99628.31;5086614;28;20048;-80
2022/07/06 05:42:03;;;;;;;4.95;2.63;;;;;;;16.28;84.11;99628.34;5092071;28;20594;-80
2022/07/06 05:44:29;;;;;;;13.23;3.40;;;;;;;16.22;85.13;99640.16;5083761;28;20471;-79
2022/07/06 05:50:11;;;;;;;7.03;2.85;;;;;;;16.03;82.50;99615.25;5085532;28;20139;-80
2022/07/06 05:52:26;;;;;;;8.43;3.15;;;;;;;16.41;80.03;99638.47;5085459;28;20117;-80
2022/07/06 05:54:54;;;;;;;7.25;2.80;;;;;;;16.42;80.89;99642.91;5084356;28;20091;-80
2022/07/06 05:57:21;;;;;;;2.55;2.35;;;;;;;16.64;81.55;99629.81;5089046;28;20056;-80
2022/07/06 05:59:47;;;;;;;6.65;2.90;;;;;;;16.90;79.02;99630.84;5089870;28;20059;-79
2022/07/06 06:02:14;;;;;;;3.65;2.65;;;;;;;17.90;74.41;99630.44;5087802;28;20040;-80
2022/07/06 06:04:40;;;;;;;7.05;2.42;;;;;;;18.60;69.02;99621.19;5090378;28;20403;-80
2022/07/06 06:07:07;;;;;;;6.43;2.20;;;;;;;19.08;65.33;99617.75;5090887;28;20063;-80
2022/07/06 06:09:33;;;;;;;3.67;2.47;;;;;;;19.11;66.58;99635.75;5089975;28;20503;-80
2022/07/06 06:12:01;;;;;;;7.65;3.05;;;;;;;19.56;64.23;99627.13;5087731;28;20052;-80
2022/07/06 06:14:28;;;;;;;6.32;2.90;;;;;;;19.90;62.16;99624.78;5084027;28;20055;-80
2022/07/06 06:16:55;;;;;;;8.55;3.03;;;;;;;20.46;59.83;99632.78;5086770;28;20050;-80
2022/07/06 06:19:21;;;;;;;3.83;2.10;;;;;;;20.73;59.04;99638.75;5090837;28;20059;-80
2022/07/06 06:21:48;;;;;;;6.32;2.28;;;;;;;20.58;60.47;99622.63;5082737;28;20048;-80
2022/07/06 06:24:14;;;;;;;7.90;2.22;;;;;;;20.51;58.85;99635.69;5086479;28;20052;-80
2022/07/06 06:26:41;;;;;;;5.20;2.80;;;;;;;20.46;56.99;99639.19;5087561;28;20048;-80
2022/07/06 06:29:09;;;;;;;5.45;2.10;;;;;;;20.43;58.49;99636.91;5092871;28;20044;-79
2022/07/06 06:31:35;;;;;;;17.00;2.72;;;;;;;20.92;56.65;99642.22;5091761;28;20040;-80
2022/07/06 06:34:02;;;;;;;5.35;2.10;;;;;;;20.90;55.16;99644.38;5089954;28;20047;-80
2022/07/06 06:36:29;;;;;;;8.90;2.35;;;;;;;21.63;55.02;99653.16;5094717;28;20139;-79
2022/07/06 06:38:56;;;;;;;4.05;2.15;;;;;;;21.47;54.51;99643.69;5092971;28;20051;-79
2022/07/06 06:41:22;;;;;;;5.18;1.73;;;;;;;21.96;52.46;99650.75;5087047;28;20391;-80
2022/07/06 06:43:49;;;;;;;3.30;1.83;;;;;;;21.51;52.39;99647.69;5083876;28;20056;-79
2022/07/06 06:46:16;;;;;;;8.35;2.10;;;;;;;21.35;53.12;99654.78;5088536;28;20051;-79
2022/07/06 06:48:43;;;;;;;2.78;1.98;;;;;;;21.24;54.52;99643.72;5090764;28;20055;-79
2022/07/06 06:51:09;;;;;;;3.65;1.90;;;;;;;21.44;53.64;99646.94;5090864;28;20048;-80
2022/07/06 06:53:36;;;;;;;2.72;1.90;;;;;;;21.38;52.67;99643.22;5089902;28;20304;-79
2022/07/06 06:56:03;;;;;;;3.95;1.60;;;;;;;20.66;53.97;99635.25;5089570;28;20044;-79
2022/07/06 06:58:29;;;;;;;4.28;1.88;;;;;;;21.44;54.06;99646.09;5089841;28;20055;-79
2022/07/06 07:00:56;;;;;;;6.25;2.17;;;;;;;21.12;54.09;99647.38;5090285;28;20495;-80
2022/07/06 07:03:23;;;;;;;2.05;1.70;;;;;;;20.98;54.83;99643.16;5089770;28;20040;-79
2022/07/06 07:05:50;;;;;;;5.07;1.90;;;;;;;21.07;54.19;99644.47;5090677;28;20052;-79
2022/07/06 07:08:16;;;;;;;6.10;1.95;;;;;;;21.36;52.96;99650.06;5090498;28;20047;-79
2022/07/06 07:10:43;;;;;;;4.20;2.38;;;;;;;21.76;51.69;99640.97;5083820;28;20063;-79
2022/07/06 07:13:09;;;;;;;5.18;2.05;;;;;;;22.16;50.11;99640.06;5081696;28;20055;-79
2022/07/06 07:15:36;;;;;;;2.67;1.65;;;;;;;22.33;49.21;99642.03;5087705;28;20284;-79
2022/07/06 07:18:02;;;;;;;9.05;1.75;;;;;;;22.19;49.66;99627.63;5088938;28;20064;-79
2022/07/06 07:20:32;;;;;;;3.47;1.70;;;;;;;21.80;49.58;99636.63;5090577;28;20059;-80
2022/07/06 07:22:59;;;;;;;2.35;1.77;;;;;;;22.25;47.82;99635.78;5088310;28;20059;-79
2022/07/06 07:25:25;;;;;;;12.90;2.60;;;;;;;22.14;48.73;99628.38;5086102;28;20044;-80
2022/07/06 07:27:52;;;;;;;4.68;2.22;;;;;;;22.71;48.31;99632.09;5090066;28;20063;-79
2022/07/06 07:30:18;;;;;;;2.15;1.55;;;;;;;22.60;47.66;99634.72;5090467;28;20048;-79
2022/07/06 07:32:45;;;;;;;4.53;1.48;;;;;;;22.35;49.26;99639.84;5089931;28;20047;-79
2022/07/06 07:35:11;;;;;;;6.20;1.70;;;;;;;22.80;47.14;99633.34;5109854;28;20060;-79
2022/07/06 07:37:39;;;;;;;3.00;1.38;;;;;;;22.71;48.51;99621.84;5109372;28;20048;-79
2022/07/06 07:40:07;;;;;;;4.97;1.40;;;;;;;22.69;46.92;99634.28;5103357;28;20059;-79
2022/07/06 07:42:33;;;;;;;3.03;1.75;;;;;;;22.67;46.44;99630.94;5102024;28;20044;-79
2022/07/06 07:45:00;;;;;;;4.97;1.33;;;;;;;22.72;46.69;99625.47;5094670;28;20044;-79
2022/07/06 07:47:26;;;;;;;7.78;1.70;;;;;;;22.61;47.85;99619.78;5092156;28;20048;-79
2022/07/06 07:49:53;;;;;;;10.15;1.83;;;;;;;22.86;48.18;99624.00;5102535;28;20431;-79
2022/07/06 07:52:20;;;;;;;5.72;2.00;;;;;;;22.26;48.07;99625.53;5110796;28;20050;-78
2022/07/06 07:54:47;;;;;;;7.20;1.85;;;;;;;21.89;48.86;99632.38;5096597;28;20484;-79
2022/07/06 07:57:14;;;;;;;4.63;1.98;;;;;;;22.07;48.28;99644.28;5094917;28;20051;-79
2022/07/06 07:59:42;;;;;;;6.85;1.63;;;;;;;22.36;49.35;99606.34;5092991;28;20053;-79
2022/07/06 08:02:08;;;;;;;11.02;2.00;;;;;;;22.51;48.34;99613.25;5093397;28;20040;-80
2022/07/06 08:04:35;;;;;;;3.45;2.00;;;;;;;22.32;49.15;99618.19;5093817;28;20054;-79
2022/07/06 08:07:01;;;;;;;2.55;1.80;;;;;;;22.08;49.13;99624.66;5093613;28;20040;-79
2022/07/06 08:09:28;;;;;;;5.88;1.80;;;;;;;21.74;50.70;99629.31;5093804;28;20048;-79
2022/07/06 08:11:56;;;;;;;5.88;2.00;;;;;;;21.94;49.93;99616.94;5092925;28;20044;-79
2022/07/06 08:14:23;;;;;;;4.35;1.73;;;;;;;22.15;49.52;99629.22;5089780;28;20517;-79
2022/07/06 08:16:49;;;;;;;9.23;1.92;;;;;;;22.67;48.67;99633.69;5093410;28;20055;-79
2022/07/06 08:19:16;;;;;;;4.43;1.75;;;;;;;22.69;47.27;99629.59;5093456;28;20056;-79
2022/07/06 08:21:43;;;;;;;5.38;1.80;;;;;;;22.69;47.91;99634.28;5093509;28;20048;-79
2022/07/06 08:24:10;;;;;;;4.10;1.80;;;;;;;22.79;47.09;99638.06;5092843;28;20070;-79
2022/07/06 08:26:37;;;;;;;3.53;1.52;;;;;;;22.63;47.18;99616.75;5093879;28;20040;-79
2022/07/06 08:29:05;;;;;;;6.00;2.20;;;;;;;22.84;48.14;99606.81;5083236;28;20048;-79
2022/07/06 08:31:34;;;;;;;5.10;1.83;;;;;;;22.77;48.37;99620.00;5091954;28;20052;-79
2022/07/06 08:34:01;;;;;;;7.60;1.92;;;;;;;22.38;49.18;99615.22;5092374;28;20112;-79
2022/07/06 08:36:27;;;;;;;6.32;3.20;;;;;;;22.58;46.54;99613.88;5092854;28;20063;-79
2022/07/06 08:38:54;;;;;;;3.90;1.83;;;;;;;22.70;47.12;99619.34;5093172;28;20047;-79
2022/07/06 08:41:24;;;;;;;6.32;1.95;;;;;;;22.58;46.65;99617.50;5093950;28;20066;-79
2022/07/06 08:43:51;;;;;;;3.03;1.70;;;;;;;22.82;47.57;99625.59;5091436;28;20127;-79
2022/07/06 08:46:20;;;;;;;11.80;4.07;;;;;;;22.92;47.46;99625.75;5076512;28;20074;-79
2022/07/06 08:48:48;;;;;;;5.22;1.90;;;;;;;22.85;48.86;99614.00;5092619;28;20521;-80
2022/07/06 08:51:16;;;;;;;5.28;1.55;;;;;;;23.30;48.34;99607.44;5093364;28;20480;-79
2022/07/06 08:53:43;;;;;;;6.18;1.92;;;;;;;22.98;47.92;99621.13;5091302;28;20131;-79
2022/07/06 08:56:10;;;;;;;4.95;1.67;;;;;;;23.23;48.47;99612.38;5090785;28;20048;-79
2022/07/06 08:58:41;;;;;;;5.07;2.30;;;;;;;23.01;46.88;99614.25;5093318;28;20414;-79
2022/07/06 09:01:09;;;;;;;5.13;1.73;;;;;;;23.09;47.88;99627.66;5092945;28;20093;-78
2022/07/06 09:03:39;;;;;;;7.00;2.03;;;;;;;23.01;47.85;99612.31;5091774;28;20051;-78
2022/07/06 09:06:07;;;;;;;;;;;;;;;22.66;49.52;99626.47;5093199;28;20048;-78
2022/07/06 09:08:36;;;;;;;6.80;1.75;;;;;;;22.76;48.67;99619.19;5091597;28;20528;-77
2022/07/06 09:11:03;;;;;;;5.60;2.20;;;;;;;23.14;47.07;99622.22;5092078;28;20044;-78
2022/07/06 09:13:29;;;;;;;5.15;1.80;;;;;;;23.68;47.96;99629.81;5091032;28;20575;-77
2022/07/06 09:15:56;;;;;;;6.03;2.10;;;;;;;23.97;46.32;99633.22;5092519;28;20051;-78
2022/07/06 09:18:23;;;;;;;6.07;2.30;;;;;;;23.89;46.16;99635.63;5092582;28;20484;-78
2022/07/06 09:20:51;;;;;;;3.75;2.03;;;;;;;23.22;47.75;99629.25;5092564;28;20491;-77
2022/07/06 09:23:18;;;;;;;3.85;1.60;;;;;;;23.11;48.62;99640.22;5090322;28;20041;-78
2022/07/06 09:25:48;;;;;;;6.15;1.80;;;;;;;23.44;48.35;99651.44;5093555;28;20052;-77
2022/07/06 09:28:15;;;;;;;4.70;1.80;;;;;;;23.35;47.35;99633.56;5092467;28;20052;-78
2022/07/06 09:30:42;;;;;;;4.22;1.88;;;;;;;23.54;46.51;99647.97;5092502;28;20044;-78
2022/07/06 09:33:09;;;;;;;4.65;1.90;;;;;;;23.51;45.89;99638.22;5091748;28;20531;-79
2022/07/06 09:35:38;;;;;;;8.18;2.17;;;;;;;23.18;47.30;99634.47;5091873;28;20083;-79
2022/07/06 09:38:07;;;;;;;6.65;1.90;;;;;;;23.40;46.85;99631.72;5088671;28;20531;-78
2022/07/06 09:40:36;;;;;;;5.47;2.03;;;;;;;23.40;46.51;99647.53;5085469;28;20044;-79
2022/07/06 09:43:15;;;;;;;7.15;2.03;;;;;;;23.45;45.44;99640.09;5091258;28;20048;-78
2022/07/06 09:45:43;;;;;;;5.07;1.75;;;;;;;23.64;45.61;99637.00;5090339;28;20051;-79
2022/07/06 09:48:12;;;;;;;4.22;1.75;;;;;;;24.11;45.84;99647.50;5091897;28;20044;-79
2022/07/06 09:50:39;;;;;;;5.28;1.60;;;;;;;23.87;44.51;99649.75;5091166;28;20138;-79
2022/07/06 09:53:08;;;;;;;5.53;1.70;;;;;;;24.24;44.07;99642.63;5082480;28;20068;-79
2022/07/06 09:55:34;;;;;;;2.08;1.40;;;;;;;24.58;43.28;99642.38;5091382;28;20044;-79
2022/07/06 09:58:01;;;;;;;10.10;2.00;;;;;;;24.64;44.03;99642.16;5091709;28;20048;-79
2022/07/06 10:00:27;;;;;;;4.82;1.88;;;;;;;24.29;44.02;99637.13;5090854;28;20059;-78
2022/07/06 10:02:55;;;;;;;5.72;1.63;;;;;;;23.50;46.51;99631.84;5091183;28;20130;-78
2022/07/06 10:05:26;;;;;;;3.47;1.42;;;;;;;23.75;44.36;99651.81;5091311;28;20043;-79
2022/07/06 10:07:58;;;;;;;2.78;1.73;;;;;;;23.61;44.65;99641.13;5083377;28;20072;-78
2022/07/06 10:10:29;;;;;;;7.30;1.70;;;;;;;23.97;43.58;99649.03;5083305;28;20055;-79
2022/07/06 10:12:57;;;;;;;7.20;2.17;;;;;;;24.12;42.82;99653.91;5090016;28;20405;-78
2022/07/06 10:15:25;;;;;;;8.10;2.10;;;;;;;24.21;42.46;99650.38;5091087;28;20052;-79
2022/07/06 10:17:52;;;;;;;6.43;2.08;;;;;;;24.41;43.31;99648.91;5091840;28;20135;-79
2022/07/06 10:20:20;;;;;;;3.50;1.70;;;;;;;23.99;43.32;99660.72;5086966;28;20048;-79
2022/07/06 10:22:47;;;;;;;6.60;1.40;;;;;;;24.01;43.53;99658.50;5084629;28;20530;-79
2022/07/06 10:25:16;;;;;;;6.05;2.03;;;;;;;24.58;42.33;99656.25;5090733;28;20058;-78
2022/07/06 10:27:45;;;;;;;7.28;1.90;;;;;;;24.63;41.75;99646.06;5091149;28;20044;-79
2022/07/06 10:30:12;;;;;;;3.85;1.52;;;;;;;25.20;41.32;99650.03;5089448;28;20059;-79
2022/07/06 10:32:41;;;;;;;7.88;1.63;;;;;;;25.29;40.73;99650.34;5089776;28;20109;-79
2022/07/06 10:35:09;;;;;;;4.33;1.77;;;;;;;25.27;40.60;99650.63;5088784;28;20084;-79
2022/07/06 10:37:36;;;;;;;4.75;1.80;;;;;;;25.44;40.32;99655.19;5083497;28;20287;-79
2022/07/06 10:42:51;;;;;;;4.07;1.40;;;;;;;25.19;41.00;99651.16;5090163;28;20078;-79
2022/07/06 10:45:41;;;;;;;5.85;1.30;;;;;;;25.30;40.73;99640.94;5087868;28;20395;-79
2022/07/06 10:48:17;;;;;;;6.72;1.73;;;;;;;25.12;40.78;99649.72;5088718;28;20052;-79
2022/07/06 10:50:49;;;;;;;5.88;1.33;;;;;;;24.81;41.48;99650.38;5087733;28;20414;-79
2022/07/06 10:53:16;;;;;;;6.63;1.58;;;;;;;24.80;40.31;99658.97;5089945;28;20047;-79
2022/07/06 10:55:46;;;;;;;8.60;1.77;;;;;;;24.98;41.48;99652.97;5090453;28;20584;-79
2022/07/06 10:58:14;;;;;;;7.80;1.55;;;;;;;25.14;40.17;99650.28;5090495;28;20054;-79
2022/07/06 11:00:51;;;;;;;8.52;1.40;;;;;;;25.39;40.44;99649.59;5090430;28;20051;-79
2022/07/06 11:03:39;;;;;;;4.43;1.80;;;;;;;25.31;38.43;99653.75;5088689;28;20055;-79
2022/07/06 11:06:12;;;;;;;6.78;1.67;;;;;;;24.98;40.10;99649.38;5076669;28;20063;-79
2022/07/06 11:09:03;;;;;;;10.93;1.70;;;;;;;25.48;40.71;99647.97;5090106;28;20480;-79
2022/07/06 11:11:40;;;;;;;5.30;2.60;;;;;;;25.41;39.04;99644.59;5091083;28;20407;-79
2022/07/06 11:14:11;;;;;;;3.35;1.40;;;;;;;25.54;38.49;99646.06;5093894;28;20044;-79
2022/07/06 11:16:39;;;;;;;2.33;1.35;;;;;;;25.68;40.38;99636.06;5094290;28;20055;-79
2022/07/06 11:19:09;;;;;;;4.28;1.52;;;;;;;25.86;39.09;99650.59;5094511;28;20091;-80
2022/07/06 11:21:38;;;;;;;3.20;1.35;;;;;;;25.83;37.63;99651.16;5094076;28;20085;-80
2022/07/06 11:24:07;;;;;;;3.00;1.30;;;;;;;26.09;38.14;99647.34;5093731;28;20044;-79
2022/07/06 11:26:35;;;;;;;3.38;1.70;;;;;;;25.94;37.97;99652.84;5084677;28;20071;-79
2022/07/06 11:29:05;;;;;;;7.37;1.83;;;;;;;25.33;38.76;99639.56;5094058;28;20087;-80
2022/07/06 11:31:36;;;;;;;5.43;1.50;;;;;;;25.69;38.46;99643.31;5093988;28;21122;-79
2022/07/06 11:34:06;;;;;;;5.20;1.65;;;;;;;25.95;37.68;99637.81;5093368;28;20044;-79
2022/07/06 11:36:34;;;;;;;6.13;1.35;;;;;;;26.34;37.64;99639.28;5093929;28;20483;-79
2022/07/06 11:39:00;;;;;;;7.18;1.52;;;;;;;26.00;36.66;99635.09;5094032;28;20269;-80